createdAt,value
2018-09-09T00:01:40.336Z,15.40
2018-09-09T00:06:50.329Z,15.50
2018-09-09T00:12:00.392Z,15.30
2018-09-09T00:17:10.944Z,15.40
2018-09-09T00:22:20.984Z,15.70
2018-09-09T00:27:31.060Z,15.60
2018-09-09T00:32:40.971Z,15.60
2018-09-09T00:37:51.023Z,16.10
2018-09-09T00:43:00.943Z,15.60
2018-09-09T00:48:10.846Z,15.50
2018-09-09T00:53:26.256Z,15.40
2018-09-09T00:58:36.263Z,15.60
2018-09-09T01:03:47.503Z,15.50
2018-09-09T01:08:57.424Z,15.50
2018-09-09T01:14:07.329Z,15.40
2018-09-09T01:19:17.288Z,15.50
2018-09-09T01:24:27.131Z,15.50
2018-09-09T01:29:37.208Z,15.70
2018-09-09T01:34:47.268Z,15.60
2018-09-09T01:39:57.383Z,15.60
2018-09-09T01:45:07.463Z,15.80
2018-09-09T01:50:17.739Z,15.80
2018-09-09T01:55:27.719Z,15.60
2018-09-09T02:00:37.751Z,15.80
2018-09-09T02:05:47.616Z,15.50
2018-09-09T02:11:00.650Z,15.60
2018-09-09T02:16:10.779Z,15.30
2018-09-09T02:21:20.687Z,15.30
2018-09-09T02:26:30.707Z,15.20
2018-09-09T02:31:40.724Z,15.10
2018-09-09T02:36:50.780Z,15.20
2018-09-09T02:42:00.755Z,15.00
2018-09-09T02:47:11.007Z,14.90
2018-09-09T02:52:20.863Z,15.30
2018-09-09T02:57:30.914Z,15.30
2018-09-09T03:02:40.936Z,15.20
2018-09-09T03:07:51.019Z,15.10
2018-09-09T03:13:01.139Z,15.20
2018-09-09T03:18:11.144Z,15.00
2018-09-09T03:23:21.077Z,15.20
2018-09-09T03:28:31.769Z,15.00
2018-09-09T03:33:41.744Z,15.10
2018-09-09T03:38:51.585Z,14.90
2018-09-09T03:44:01.487Z,14.90
2018-09-09T03:49:11.515Z,14.90
2018-09-09T03:54:21.499Z,15.00
2018-09-09T03:59:31.529Z,15.30
2018-09-09T04:04:41.511Z,15.00
2018-09-09T04:09:51.447Z,14.90
2018-09-09T04:15:01.460Z,15.30
2018-09-09T04:20:11.441Z,15.30
2018-09-09T04:25:21.558Z,15.10
2018-09-09T04:30:31.565Z,14.90
2018-09-09T04:35:41.535Z,15.00
2018-09-09T04:40:51.572Z,15.10
2018-09-09T04:46:01.595Z,15.10
2018-09-09T04:51:11.600Z,15.00
2018-09-09T04:56:21.572Z,15.20
2018-09-09T05:01:31.648Z,15.10
2018-09-09T05:06:41.528Z,15.60
2018-09-09T05:11:51.452Z,15.20
2018-09-09T05:17:01.440Z,15.00
2018-09-09T05:22:11.514Z,15.20
2018-09-09T05:27:21.533Z,15.10
2018-09-09T05:32:31.592Z,15.00
2018-09-09T05:37:41.536Z,15.00
2018-09-09T05:42:51.515Z,15.20
2018-09-09T05:48:01.516Z,15.40
2018-09-09T05:53:11.507Z,15.60
2018-09-09T05:58:21.548Z,15.40
2018-09-09T06:03:31.651Z,15.30
2018-09-09T06:08:41.663Z,15.40
2018-09-09T06:13:51.740Z,15.70
2018-09-09T06:19:01.859Z,15.50
2018-09-09T06:24:11.831Z,15.70
2018-09-09T06:29:21.908Z,15.60
2018-09-09T06:34:31.915Z,15.80
2018-09-09T06:39:41.981Z,15.60
2018-09-09T06:44:52.012Z,15.50
2018-09-09T06:50:02.077Z,15.90
2018-09-09T06:55:12.143Z,15.60
2018-09-09T07:00:22.260Z,16.10
2018-09-09T07:05:32.145Z,16.40
2018-09-09T07:10:42.186Z,16.80
2018-09-09T07:15:52.004Z,16.60
2018-09-09T07:21:02.024Z,16.90
2018-09-09T07:26:12.201Z,17.30
2018-09-09T07:31:22.095Z,17.70
2018-09-09T07:36:31.980Z,18.20
2018-09-09T07:41:42.044Z,18.60
2018-09-09T07:46:52.092Z,18.70
2018-09-09T07:52:02.111Z,18.10
2018-09-09T07:57:12.143Z,18.40
2018-09-09T08:02:22.215Z,18.40
2018-09-09T08:07:32.284Z,19.00
2018-09-09T08:12:42.608Z,19.00
2018-09-09T08:17:52.681Z,19.20
2018-09-09T08:23:02.713Z,19.60
2018-09-09T08:28:12.782Z,19.90
2018-09-09T08:33:22.684Z,20.20
2018-09-09T08:38:32.752Z,20.70
2018-09-09T08:43:42.684Z,20.70
2018-09-09T08:48:52.520Z,21.50
2018-09-09T08:54:02.440Z,21.70
2018-09-09T08:59:12.424Z,21.30
2018-09-09T09:05:51.723Z,21.90
2018-09-09T09:11:02.406Z,22.20
2018-09-09T09:16:12.324Z,22.30
2018-09-09T09:21:22.352Z,22.30
2018-09-09T09:26:32.344Z,22.90
2018-09-09T09:31:42.245Z,22.80
2018-09-09T09:36:52.242Z,22.90
2018-09-09T09:42:02.292Z,23.00
2018-09-09T09:47:12.464Z,22.90
2018-09-09T09:52:22.371Z,23.20
2018-09-09T09:57:32.365Z,23.50
2018-09-09T10:02:42.431Z,24.10
2018-09-09T10:07:52.764Z,24.50
2018-09-09T10:13:02.664Z,24.80
2018-09-09T10:18:12.720Z,25.70
2018-09-09T10:23:22.771Z,25.10
2018-09-09T10:28:32.799Z,24.80
2018-09-09T10:33:42.921Z,26.10
2018-09-09T10:38:52.844Z,26.40
2018-09-09T10:44:02.890Z,25.30
2018-09-09T10:49:12.903Z,26.40
2018-09-09T10:54:22.883Z,26.70
2018-09-09T10:59:32.912Z,27.80
2018-09-09T11:04:42.997Z,27.70
2018-09-09T11:09:52.959Z,27.00
2018-09-09T11:15:03.074Z,27.70
2018-09-09T11:20:12.963Z,26.70
2018-09-09T11:25:23.016Z,27.50
2018-09-09T11:30:33.075Z,28.60
2018-09-09T11:35:43.091Z,28.70
2018-09-09T11:40:53.119Z,28.80
2018-09-09T11:46:03.115Z,28.40
2018-09-09T11:51:13.143Z,28.60
2018-09-09T11:56:23.183Z,28.90
2018-09-09T12:01:33.165Z,28.00
2018-09-09T12:06:43.023Z,28.00
2018-09-09T12:11:53.011Z,28.50
2018-09-09T12:17:02.952Z,27.40
2018-09-09T12:22:12.963Z,26.70
2018-09-09T12:27:22.987Z,27.60
2018-09-09T12:32:32.999Z,28.10
2018-09-09T12:37:42.966Z,28.90
2018-09-09T12:43:55.568Z,28.10
2018-09-09T12:49:07.011Z,27.60
2018-09-09T12:54:17.002Z,27.40
2018-09-09T12:59:26.875Z,28.00
2018-09-09T13:04:36.871Z,29.00
2018-09-09T13:09:46.896Z,29.30
2018-09-09T13:14:56.902Z,30.50
2018-09-09T13:20:06.927Z,29.40
2018-09-09T13:25:16.779Z,26.60
2018-09-09T13:30:26.768Z,28.80
2018-09-09T13:35:36.636Z,29.10
2018-09-09T13:40:46.644Z,28.60
2018-09-09T13:45:56.683Z,28.60
2018-09-09T13:51:06.699Z,27.60
2018-09-09T13:56:16.670Z,27.20
2018-09-09T14:01:26.703Z,27.60
2018-09-09T14:06:36.800Z,27.70
2018-09-09T14:11:46.691Z,27.70
2018-09-09T14:16:56.692Z,27.00
2018-09-09T14:22:06.759Z,27.30
2018-09-09T14:27:16.789Z,26.30
2018-09-09T14:32:26.827Z,25.30
2018-09-09T14:37:36.701Z,25.20
2018-09-09T14:42:46.829Z,25.40
2018-09-09T14:47:56.785Z,25.60
2018-09-09T14:53:06.758Z,25.40
2018-09-09T14:58:16.792Z,25.50
2018-09-09T15:03:26.716Z,26.00
2018-09-09T15:08:36.787Z,26.30
2018-09-09T15:13:46.909Z,26.20
2018-09-09T15:18:56.928Z,26.50
2018-09-09T15:24:07.100Z,26.50
2018-09-09T15:29:17.100Z,25.50
2018-09-09T15:34:27.218Z,25.50
2018-09-09T15:39:37.023Z,25.10
2018-09-09T15:44:46.990Z,26.20
2018-09-09T15:49:56.980Z,25.40
2018-09-09T15:55:07.058Z,26.00
2018-09-09T16:00:17.156Z,26.40
2018-09-09T16:05:26.954Z,26.80
2018-09-09T16:10:36.962Z,26.70
2018-09-09T16:15:47.025Z,26.30
2018-09-09T16:20:57.332Z,26.20
2018-09-09T16:26:07.343Z,25.60
2018-09-09T16:31:17.661Z,25.60
2018-09-09T16:36:27.609Z,24.90
2018-09-09T16:41:38.300Z,23.90
2018-09-09T16:46:48.446Z,24.10
2018-09-09T16:51:58.408Z,23.90
2018-09-09T16:57:08.369Z,23.70
2018-09-09T17:02:18.431Z,23.50
2018-09-09T17:07:28.367Z,23.40
2018-09-09T17:12:38.395Z,23.30
2018-09-09T17:17:48.524Z,23.20
2018-09-09T17:22:58.472Z,23.10
2018-09-09T17:28:08.581Z,23.20
2018-09-09T17:33:18.580Z,23.10
2018-09-09T17:38:28.784Z,23.00
2018-09-09T17:43:39.036Z,22.90
2018-09-09T17:48:49.048Z,22.70
2018-09-09T17:53:59.142Z,22.80
2018-09-09T17:59:09.036Z,22.50
2018-09-09T18:04:18.951Z,22.80
2018-09-09T18:09:28.985Z,22.50
2018-09-09T18:14:39.068Z,22.60
2018-09-09T18:19:49.080Z,22.50
2018-09-09T18:24:59.203Z,22.60
2018-09-09T18:30:09.187Z,22.60
2018-09-09T18:35:19.272Z,22.60
2018-09-09T18:40:29.444Z,22.00
2018-09-09T18:45:39.554Z,22.80
2018-09-09T18:50:49.547Z,21.60
2018-09-09T18:55:59.495Z,21.30
2018-09-09T19:01:09.620Z,20.60
2018-09-09T19:06:19.633Z,20.60
2018-09-09T19:11:29.673Z,19.80
2018-09-09T19:16:39.607Z,19.50
2018-09-09T19:21:49.731Z,20.00
2018-09-09T19:26:59.770Z,20.10
2018-09-09T19:32:09.907Z,19.70
2018-09-09T19:37:19.816Z,19.70
2018-09-09T19:42:33.128Z,19.80
2018-09-09T19:47:43.012Z,20.20
2018-09-09T19:52:53.007Z,20.10
2018-09-09T19:58:03.076Z,19.40
2018-09-09T20:03:13.081Z,19.00
2018-09-09T20:08:23.075Z,18.80
2018-09-09T20:13:33.104Z,18.80
2018-09-09T20:18:43.136Z,18.60
2018-09-09T20:23:53.189Z,18.50
2018-09-09T20:29:03.131Z,18.70
2018-09-09T20:34:13.171Z,18.40
2018-09-09T20:39:23.060Z,18.30
2018-09-09T20:44:33.021Z,18.10
2018-09-09T20:49:42.964Z,18.10
2018-09-09T20:54:52.995Z,18.00
2018-09-09T21:00:03.019Z,18.20
2018-09-09T21:05:13.026Z,18.20
2018-09-09T21:10:23.112Z,18.30
2018-09-09T21:15:33.115Z,18.30
2018-09-09T21:20:43.111Z,18.30
2018-09-09T21:25:53.151Z,18.40
2018-09-09T21:31:03.176Z,18.40
2018-09-09T21:36:13.240Z,18.30
2018-09-09T21:41:23.271Z,18.30
2018-09-09T21:46:33.315Z,18.30
2018-09-09T21:51:43.481Z,18.20
2018-09-09T21:56:53.311Z,18.10
2018-09-09T22:02:04.463Z,18.00
2018-09-09T22:07:14.523Z,17.90
2018-09-09T22:12:24.536Z,17.90
2018-09-09T22:17:34.607Z,17.80
2018-09-09T22:22:44.631Z,17.90
2018-09-09T22:27:54.638Z,17.90
2018-09-09T22:33:04.680Z,18.10
2018-09-09T22:38:14.600Z,18.20
2018-09-09T22:43:24.706Z,18.30
2018-09-09T22:48:34.724Z,18.20
2018-09-09T22:53:44.755Z,18.20
2018-09-09T22:58:54.736Z,18.20
2018-09-09T23:04:04.800Z,18.20
2018-09-09T23:09:14.844Z,18.10
2018-09-09T23:14:24.822Z,18.00
2018-09-09T23:19:34.778Z,18.00
2018-09-09T23:24:44.805Z,18.00
2018-09-09T23:29:54.788Z,17.90
2018-09-09T23:35:04.864Z,17.80
2018-09-09T23:40:14.824Z,17.80
2018-09-09T23:45:24.696Z,17.80
2018-09-09T23:50:34.735Z,17.70
2018-09-09T23:55:44.733Z,17.60
